Time;durP1;ratioP1;P1;durP2;ratioP2;P2;SDS_P1;SDS_P2;PMS_P1;PMS_P2;Temp;Humidity;BMP_temperature;BMP_pressure;BME280_temperature;BME280_humidity;BME280_pressure;Samples;Min_cycle;Max_cycle;Signal;HPM_P1;HPM_P2
2022/07/01 00:01:19;;;;;;;5.70;1.10;;;;;;;16.05;100.00;100014.28;4993213;28;20642;-66
2022/07/01 00:03:49;;;;;;;1.17;1.00;;;;;;;15.93;100.00;100010.91;4999034;28;20325;-67
2022/07/01 00:06:15;;;;;;;1.77;1.10;;;;;;;16.01;100.00;100005.09;4996287;28;20184;-66
2022/07/01 00:08:40;;;;;;;1.13;0.87;;;;;;;15.90;100.00;100009.38;4993514;28;20191;-67
2022/07/01 00:11:05;;;;;;;1.90;0.83;;;;;;;15.73;100.00;100026.22;4991915;28;20599;-66
2022/07/01 00:13:32;;;;;;;2.90;0.87;;;;;;;15.61;100.00;100038.34;5000759;28;20187;-67
2022/07/01 00:15:58;;;;;;;0.90;0.90;;;;;;;15.70;100.00;100042.00;4993508;28;20202;-67
2022/07/01 00:18:23;;;;;;;9.77;1.33;;;;;;;15.75;100.00;100046.84;4993825;28;20183;-67
2022/07/01 00:20:50;;;;;;;1.87;1.00;;;;;;;15.74;100.00;100043.44;4988968;28;20238;-66
2022/07/01 00:23:16;;;;;;;0.60;0.60;;;;;;;15.85;100.00;100049.56;4992445;28;20195;-66
2022/07/01 00:25:42;;;;;;;2.00;0.97;;;;;;;15.84;100.00;100053.09;4993033;28;20702;-66
2022/07/01 00:28:07;;;;;;;4.70;1.00;;;;;;;15.82;100.00;100054.06;4993601;28;20179;-65
2022/07/01 00:30:32;;;;;;;0.87;0.87;;;;;;;15.73;100.00;100062.53;4986599;28;20662;-67
2022/07/01 00:32:58;;;;;;;0.90;0.90;;;;;;;15.61;100.00;100066.88;5004499;28;20714;-67
2022/07/01 00:35:23;;;;;;;1.00;1.00;;;;;;;15.57;100.00;100067.25;4990480;28;20180;-67
2022/07/01 00:37:48;;;;;;;1.50;0.93;;;;;;;15.68;100.00;100062.06;4989452;28;20179;-66
2022/07/01 00:40:14;;;;;;;1.33;0.90;;;;;;;15.68;100.00;100056.03;4984033;28;20632;-66
2022/07/01 00:42:41;;;;;;;0.67;0.67;;;;;;;15.82;100.00;100050.66;5006865;28;20211;-66
2022/07/01 00:45:09;;;;;;;2.33;0.90;;;;;;;15.64;100.00;100051.09;5002980;28;20691;-67
2022/07/01 00:47:36;;;;;;;3.20;0.90;;;;;;;15.56;100.00;100044.84;4993008;28;20176;-69
2022/07/01 00:50:01;;;;;;;5.60;1.27;;;;;;;15.39;100.00;100033.97;4992595;28;20196;-68
2022/07/01 00:52:26;;;;;;;2.53;1.23;;;;;;;15.31;100.00;100037.16;4982159;28;20217;-67
2022/07/01 00:54:54;;;;;;;4.10;1.10;;;;;;;15.33;100.00;100034.44;5001486;28;20246;-67
2022/07/01 00:57:19;;;;;;;3.10;0.80;;;;;;;15.16;100.00;100039.13;4992852;28;20207;-69
2022/07/01 00:59:45;;;;;;;2.17;1.00;;;;;;;15.13;100.00;100051.50;4992200;28;20211;-69
2022/07/01 01:02:10;;;;;;;3.70;1.00;;;;;;;14.98;100.00;100051.69;4983722;28;20618;-70
2022/07/01 01:04:36;;;;;;;1.90;0.90;;;;;;;14.94;100.00;100060.63;4993052;28;20237;-70
2022/07/01 01:07:02;;;;;;;1.77;1.00;;;;;;;14.92;100.00;100059.94;4994521;28;20760;-70
2022/07/01 01:09:29;;;;;;;2.03;0.80;;;;;;;14.99;100.00;100061.09;4992049;28;20175;-68
2022/07/01 01:11:54;;;;;;;0.73;0.73;;;;;;;14.97;100.00;100056.97;4996581;28;20291;-70
2022/07/01 01:14:21;;;;;;;2.27;1.10;;;;;;;14.94;100.00;100067.56;4991039;28;20652;-69
2022/07/01 01:16:46;;;;;;;1.13;0.60;;;;;;;14.92;100.00;100078.06;4991328;28;20186;-70
2022/07/01 01:19:11;;;;;;;1.97;0.77;;;;;;;14.90;100.00;100092.06;4992108;28;20191;-69
2022/07/01 01:21:37;;;;;;;1.33;0.77;;;;;;;14.99;100.00;100097.38;4994350;28;20289;-69
2022/07/01 01:24:02;;;;;;;1.87;0.60;;;;;;;15.03;100.00;100110.91;4991006;28;20258;-70
2022/07/01 01:26:28;;;;;;;0.60;0.60;;;;;;;14.93;100.00;100122.91;4992445;28;20207;-69
2022/07/01 01:28:53;;;;;;;0.93;0.57;;;;;;;14.98;100.00;100119.06;4991947;28;20189;-69
2022/07/01 01:31:30;;;;;;;0.67;0.67;;;;;;;14.97;100.00;100119.97;4987753;28;20246;-69
2022/07/01 01:33:57;;;;;;;2.97;1.00;;;;;;;14.95;100.00;100129.63;4995737;28;20199;-71
2022/07/01 01:36:22;;;;;;;2.17;0.70;;;;;;;15.06;100.00;100131.44;4992073;28;20190;-69
2022/07/01 01:38:47;;;;;;;1.77;0.70;;;;;;;15.02;100.00;100130.00;4991851;28;20192;-68
2022/07/01 01:41:13;;;;;;;1.83;0.80;;;;;;;15.14;100.00;100125.69;4991326;28;20615;-68
2022/07/01 01:43:38;;;;;;;0.83;0.73;;;;;;;15.03;100.00;100112.69;5002169;28;20190;-69
2022/07/01 01:46:04;;;;;;;2.87;1.00;;;;;;;14.91;100.00;100119.59;5000195;28;20214;-70
2022/07/01 01:48:30;;;;;;;0.60;0.60;;;;;;;14.96;100.00;100122.69;4991983;28;20180;-69
2022/07/01 01:50:56;;;;;;;1.30;0.70;;;;;;;14.93;100.00;100120.31;4983613;28;20701;-68
2022/07/01 01:53:21;;;;;;;1.90;0.70;;;;;;;15.02;100.00;100117.06;4995048;28;20178;-69
2022/07/01 01:55:47;;;;;;;0.70;0.70;;;;;;;14.90;100.00;100111.00;4991809;28;20211;-68
2022/07/01 01:58:12;;;;;;;1.17;0.80;;;;;;;15.04;100.00;100106.59;5006950;28;20611;-69
2022/07/01 02:00:37;;;;;;;3.80;0.80;;;;;;;15.12;100.00;100112.84;4986188;28;20636;-68
2022/07/01 02:03:03;;;;;;;0.97;0.73;;;;;;;15.15;100.00;100104.84;5002603;28;20207;-68
2022/07/01 02:05:28;;;;;;;3.00;0.80;;;;;;;15.16;100.00;100097.91;4993792;28;20237;-67
2022/07/01 02:07:53;;;;;;;0.60;0.60;;;;;;;15.08;100.00;100108.84;4991990;28;20203;-68
2022/07/01 02:10:19;;;;;;;1.33;0.70;;;;;;;15.14;100.00;100113.56;4983328;28;20187;-67
2022/07/01 02:12:44;;;;;;;1.00;0.77;;;;;;;15.13;100.00;100116.25;5004650;28;20183;-69
2022/07/01 02:15:10;;;;;;;0.60;0.60;;;;;;;15.08;100.00;100116.63;4991922;28;20183;-68
2022/07/01 02:17:35;;;;;;;0.90;0.70;;;;;;;15.02;100.00;100117.06;4991674;28;20183;-68
2022/07/01 02:20:01;;;;;;;1.47;0.90;;;;;;;15.00;100.00;100122.34;4995526;28;20229;-68
2022/07/01 02:22:26;;;;;;;0.90;0.80;;;;;;;15.11;100.00;100112.97;5000398;28;20322;-68
2022/07/01 02:24:51;;;;;;;0.90;0.70;;;;;;;14.81;100.00;100115.09;4994347;28;20239;-68
2022/07/01 02:27:16;;;;;;;0.80;0.80;;;;;;;15.04;100.00;100119.53;5010555;28;20190;-67
2022/07/01 02:29:42;;;;;;;1.07;0.77;;;;;;;15.06;100.00;100115.88;4990991;28;20184;-67
2022/07/01 02:32:07;;;;;;;0.87;0.80;;;;;;;15.20;100.00;100120.06;4996261;28;20230;-67
2022/07/01 02:34:32;;;;;;;1.00;0.80;;;;;;;15.00;100.00;100117.16;4995556;28;20187;-68
2022/07/01 02:36:58;;;;;;;2.43;1.20;;;;;;;15.03;100.00;100117.88;4995901;28;20203;-69
2022/07/01 02:39:23;;;;;;;0.63;0.63;;;;;;;15.05;100.00;100119.41;4994971;28;20203;-67
2022/07/01 02:44:35;;;;;;;1.10;0.63;;;;;;;14.97;100.00;100122.56;5003424;28;20234;-68
2022/07/01 02:47:01;;;;;;;1.90;0.70;;;;;;;14.98;100.00;100119.06;4995534;28;20286;-67
2022/07/01 02:49:26;;;;;;;0.87;0.70;;;;;;;15.04;100.00;100110.00;4994649;28;20216;-68
2022/07/01 02:51:51;;;;;;;0.70;0.70;;;;;;;15.08;100.00;100108.84;4987314;28;20315;-63
2022/07/01 02:54:17;;;;;;;1.53;1.00;;;;;;;14.89;100.00;100103.34;4993920;28;20187;-66
2022/07/01 02:56:42;;;;;;;0.73;0.73;;;;;;;14.83;100.00;100099.44;4993176;28;20551;-67
2022/07/01 02:59:07;;;;;;;1.57;0.80;;;;;;;14.84;100.00;100103.69;4975553;28;20184;-67
2022/07/01 03:01:33;;;;;;;0.80;0.80;;;;;;;14.87;100.00;100100.84;4966154;28;20233;-67
2022/07/01 03:03:58;;;;;;;0.83;0.57;;;;;;;14.87;100.00;100095.66;4979454;28;20617;-67
2022/07/01 03:06:23;;;;;;;0.60;0.60;;;;;;;14.71;100.00;100077.84;4978502;28;20188;-67
2022/07/01 03:08:48;;;;;;;0.60;0.60;;;;;;;14.79;100.00;100080.69;4974779;28;20620;-66
2022/07/01 03:11:14;;;;;;;1.10;0.80;;;;;;;14.92;100.00;100100.53;4983592;28;20249;-66
2022/07/01 03:13:39;;;;;;;0.57;0.57;;;;;;;14.75;100.00;100101.72;4990747;28;20220;-65
2022/07/01 03:16:04;;;;;;;1.70;0.70;;;;;;;14.64;100.00;100099.91;4974666;28;20227;-65
2022/07/01 03:18:29;;;;;;;0.83;0.50;;;;;;;14.69;100.00;100090.06;4984160;28;20197;-65
2022/07/01 03:20:55;;;;;;;1.53;1.00;;;;;;;14.80;100.00;100084.94;4972803;28;20310;-65
2022/07/01 03:23:20;;;;;;;2.93;0.67;;;;;;;14.87;100.00;100074.94;4985218;28;20200;-65
2022/07/01 03:25:46;;;;;;;1.50;0.50;;;;;;;14.89;100.00;100072.28;4974780;28;20238;-66
2022/07/01 03:28:11;;;;;;;1.07;0.80;;;;;;;14.91;100.00;100071.22;4988650;28;20195;-66
2022/07/01 03:30:37;;;;;;;0.77;0.77;;;;;;;14.87;100.00;100077.53;4968250;28;20275;-66
2022/07/01 03:33:02;;;;;;;0.60;0.47;;;;;;;14.80;100.00;100079.75;4966968;28;20191;-66
2022/07/01 03:35:45;;;;;;;1.43;0.50;;;;;;;14.81;100.00;100075.41;4998454;28;20180;-67
2022/07/01 03:38:12;;;;;;;0.77;0.40;;;;;;;14.84;100.00;100081.19;4974887;28;20198;-66
2022/07/01 03:40:38;;;;;;;1.43;0.80;;;;;;;14.66;100.00;100085.09;4987208;28;20262;-67
2022/07/01 03:43:04;;;;;;;0.67;0.67;;;;;;;14.59;100.00;100083.88;4976615;28;20214;-66
2022/07/01 03:45:30;;;;;;;0.80;0.63;;;;;;;14.65;100.00;100086.88;5000988;28;20179;-66
2022/07/01 03:47:56;;;;;;;2.17;0.60;;;;;;;14.70;100.00;100089.16;4977233;28;20643;-66
2022/07/01 03:50:23;;;;;;;0.63;0.60;;;;;;;14.71;100.00;100088.22;4968651;28;20279;-65
2022/07/01 03:52:48;;;;;;;1.33;0.67;;;;;;;14.58;100.00;100087.41;4990813;28;20275;-67
2022/07/01 03:55:14;;;;;;;0.40;0.40;;;;;;;14.67;100.00;100095.38;4987400;28;20267;-67
2022/07/01 03:57:40;;;;;;;1.87;0.80;;;;;;;14.73;100.00;100088.09;4994077;28;20606;-66
2022/07/01 04:00:07;;;;;;;1.30;1.00;;;;;;;14.66;100.00;100096.31;4982685;28;20262;-65
2022/07/01 04:02:32;;;;;;;0.60;0.60;;;;;;;14.66;100.00;100098.88;5008457;28;20195;-66
2022/07/01 04:04:58;;;;;;;1.20;0.60;;;;;;;14.87;100.00;100105.22;4994372;28;20176;-67
2022/07/01 04:07:23;;;;;;;1.43;0.63;;;;;;;14.82;100.00;100114.16;4995661;28;20623;-67
2022/07/01 04:09:49;;;;;;;0.83;0.70;;;;;;;14.90;100.00;100107.59;4993782;28;20635;-65
2022/07/01 04:12:14;;;;;;;0.70;0.70;;;;;;;14.88;100.00;100097.31;4983953;28;20232;-67
2022/07/01 04:14:40;;;;;;;1.00;0.90;;;;;;;14.95;100.00;100092.53;4993826;28;20183;-65
2022/07/01 04:17:06;;;;;;;1.23;0.80;;;;;;;14.71;100.00;100092.53;4993719;28;20289;-65
2022/07/01 04:19:32;;;;;;;1.53;0.90;;;;;;;14.72;100.00;100101.97;4991566;28;20226;-66
2022/07/01 04:24:40;;;;;;;0.97;0.77;;;;;;;14.93;100.00;100099.59;4992840;28;20237;-66
2022/07/01 04:27:06;;;;;;;1.30;0.70;;;;;;;14.95;100.00;100097.72;4985728;28;20270;-65
2022/07/01 04:29:31;;;;;;;3.10;1.07;;;;;;;14.94;100.00;100101.25;4992951;28;20591;-64
2022/07/01 04:31:57;;;;;;;0.90;0.70;;;;;;;14.77;100.00;100110.22;4997996;28;20694;-64
2022/07/01 04:34:24;;;;;;;2.70;0.80;;;;;;;14.71;100.00;100114.09;4991812;28;20214;-65
2022/07/01 04:36:49;;;;;;;2.47;0.80;;;;;;;14.87;100.00;100121.56;4992028;28;20175;-64
2022/07/01 04:39:14;;;;;;;1.57;0.90;;;;;;;14.97;100.00;100132.94;4993359;28;20194;-63
2022/07/01 04:44:24;;;;;;;4.77;1.43;;;;;;;14.84;100.00;100148.50;4995953;28;20193;-64
2022/07/01 04:46:49;;;;;;;1.30;0.60;;;;;;;14.97;100.00;100160.59;4992987;28;20544;-63
2022/07/01 04:49:14;;;;;;;0.93;0.73;;;;;;;14.97;100.00;100158.00;4992854;28;20701;-65
2022/07/01 04:51:39;;;;;;;1.40;0.67;;;;;;;15.00;100.00;100158.59;4995048;28;20223;-66
2022/07/01 04:54:08;;;;;;;1.80;0.70;;;;;;;15.03;100.00;100169.69;5003658;28;20179;-64
2022/07/01 04:56:35;;;;;;;2.30;1.00;;;;;;;15.05;100.00;100167.81;4991797;28;20193;-63
2022/07/01 04:59:01;;;;;;;1.43;0.80;;;;;;;15.05;100.00;100160.88;4992535;28;20193;-64
2022/07/01 05:01:28;;;;;;;6.70;0.93;;;;;;;15.13;100.00;100166.31;4991865;28;20709;-66
2022/07/01 05:03:53;;;;;;;0.93;0.90;;;;;;;15.18;100.00;100163.38;4975710;28;20238;-63
2022/07/01 05:06:19;;;;;;;4.20;1.20;;;;;;;15.33;100.00;100166.59;4976734;28;20192;-63
2022/07/01 05:08:44;;;;;;;2.07;1.07;;;;;;;15.43;100.00;100166.75;4972709;28;20191;-64
2022/07/01 05:11:09;;;;;;;1.90;0.97;;;;;;;15.38;100.00;100174.91;4974532;28;20337;-63
2022/07/01 05:13:35;;;;;;;3.20;1.30;;;;;;;15.36;100.00;100183.72;4981959;28;20589;-64
2022/07/01 05:16:01;;;;;;;2.30;0.87;;;;;;;15.42;100.00;100184.09;4978879;28;20187;-65
2022/07/01 05:23:54;;;;;;;2.87;1.20;;;;;;;16.07;100.00;100174.09;4992134;28;20214;-65
2022/07/01 05:26:20;;;;;;;4.23;0.83;;;;;;;16.44;100.00;100173.03;4980664;28;20267;-64
2022/07/01 05:28:46;;;;;;;1.30;1.03;;;;;;;16.54;100.00;100173.13;4972321;28;20184;-62
2022/07/01 05:31:11;;;;;;;1.77;0.90;;;;;;;16.40;100.00;100193.19;4957894;28;20237;-63
2022/07/01 05:33:37;;;;;;;1.03;0.97;;;;;;;16.31;100.00;100199.13;4980444;28;20208;-67
2022/07/01 05:36:02;;;;;;;2.57;1.10;;;;;;;16.26;100.00;100204.66;4983406;28;20188;-66
2022/07/01 05:38:27;;;;;;;2.53;1.20;;;;;;;16.39;100.00;100212.31;4971735;28;20212;-65
2022/07/01 05:40:53;;;;;;;3.83;1.50;;;;;;;16.46;100.00;100210.09;4968067;28;20222;-65
2022/07/01 05:43:19;;;;;;;1.63;1.00;;;;;;;16.61;100.00;100206.28;4990518;28;20208;-65
2022/07/01 05:45:45;;;;;;;2.50;1.60;;;;;;;16.62;100.00;100205.34;4977827;28;20271;-65
2022/07/01 05:48:10;;;;;;;1.47;1.23;;;;;;;16.64;100.00;100207.81;4992370;28;20679;-65
2022/07/01 05:50:36;;;;;;;2.83;1.30;;;;;;;16.61;100.00;100195.88;4985734;28;20234;-65
2022/07/01 05:53:01;;;;;;;2.73;1.50;;;;;;;16.89;100.00;100191.13;5005019;28;20545;-65
2022/07/01 05:55:26;;;;;;;1.63;1.00;;;;;;;17.17;100.00;100195.91;4991772;28;20237;-65
2022/07/01 05:57:52;;;;;;;1.67;1.17;;;;;;;17.36;100.00;100201.25;4991855;28;20192;-66
2022/07/01 06:00:18;;;;;;;2.93;1.60;;;;;;;17.37;99.90;100220.28;4983306;28;20207;-66
2022/07/01 06:02:43;;;;;;;2.97;1.20;;;;;;;17.67;98.12;100224.72;5005129;28;20199;-66
2022/07/01 06:05:09;;;;;;;3.23;1.60;;;;;;;18.07;95.12;100215.41;4993609;28;20172;-66
2022/07/01 06:07:34;;;;;;;1.50;1.40;;;;;;;18.46;83.48;100212.16;4992049;28;20190;-66
2022/07/01 06:09:59;;;;;;;5.10;1.77;;;;;;;18.89;83.05;100218.84;4991403;28;20179;-66
2022/07/01 06:12:25;;;;;;;3.77;1.20;;;;;;;19.40;77.12;100229.19;4996905;28;20354;-66
2022/07/01 06:14:50;;;;;;;1.27;1.13;;;;;;;20.05;73.76;100218.13;4992201;28;20190;-67
2022/07/01 06:17:16;;;;;;;3.83;1.30;;;;;;;19.87;73.39;100224.09;4991861;28;20192;-66
2022/07/01 06:19:42;;;;;;;3.33;1.57;;;;;;;19.22;71.74;100224.66;4987427;28;20192;-66
2022/07/01 06:22:08;;;;;;;3.23;1.23;;;;;;;19.27;72.53;100234.69;4986663;28;20591;-65
2022/07/01 06:24:33;;;;;;;4.60;1.37;;;;;;;18.62;75.73;100240.28;4991685;28;20215;-66
2022/07/01 06:26:59;;;;;;;1.83;1.43;;;;;;;18.45;75.88;100242.56;4991739;28;20172;-65
2022/07/01 06:29:27;;;;;;;2.07;1.20;;;;;;;18.47;74.29;100242.44;4991324;28;20180;-66
2022/07/01 06:31:52;;;;;;;2.70;1.20;;;;;;;18.97;75.66;100255.50;4995638;28;20706;-66
2022/07/01 06:34:17;;;;;;;1.13;1.03;;;;;;;19.43;68.87;100239.34;4990258;28;20210;-68
2022/07/01 06:36:43;;;;;;;2.63;1.10;;;;;;;19.88;68.37;100206.63;5006835;28;20179;-67
2022/07/01 06:39:08;;;;;;;6.17;1.40;;;;;;;19.62;66.37;100201.97;4991254;28;20191;-66
2022/07/01 06:41:33;;;;;;;3.20;1.13;;;;;;;19.35;72.37;100206.94;4992477;28;20294;-67
2022/07/01 06:44:00;;;;;;;1.80;1.17;;;;;;;19.02;73.14;100216.00;5002773;28;20214;-66
2022/07/01 06:46:26;;;;;;;2.27;1.40;;;;;;;18.97;73.12;100223.41;4994166;28;20187;-67
2022/07/01 06:48:51;;;;;;;3.50;1.30;;;;;;;19.12;71.25;100231.66;4991320;28;20175;-67
2022/07/01 06:51:17;;;;;;;1.67;0.97;;;;;;;18.90;72.81;100236.09;4990920;28;20231;-67
2022/07/01 06:53:44;;;;;;;1.47;1.17;;;;;;;18.17;74.59;100237.13;4999169;28;20222;-67
2022/07/01 06:56:10;;;;;;;1.77;1.03;;;;;;;17.99;76.83;100243.88;4991093;28;20188;-66
2022/07/01 06:58:36;;;;;;;1.20;1.10;;;;;;;18.04;79.98;100259.94;4989751;28;20267;-60
2022/07/01 07:01:01;;;;;;;1.83;1.43;;;;;;;17.66;83.03;100267.31;4971199;28;20691;-62
2022/07/01 07:03:26;;;;;;;3.80;1.13;;;;;;;17.65;81.65;100270.03;4990788;28;20214;-61
2022/07/01 07:05:52;;;;;;;2.37;1.00;;;;;;;17.50;84.94;100272.94;4996828;28;20195;-63
2022/07/01 07:08:18;;;;;;;2.17;1.37;;;;;;;17.54;86.10;100265.72;4995122;28;20254;-64
2022/07/01 07:10:43;;;;;;;2.67;1.20;;;;;;;17.40;87.29;100265.06;4985481;28;20243;-63
2022/07/01 07:13:08;;;;;;;1.97;1.40;;;;;;;17.43;89.16;100272.59;4990181;28;20547;-62
2022/07/01 07:15:34;;;;;;;5.53;1.20;;;;;;;17.04;88.36;100279.22;4983811;28;20847;-63
2022/07/01 07:17:59;;;;;;;2.37;1.30;;;;;;;16.94;89.14;100292.94;4992010;28;20180;-62
2022/07/01 07:20:25;;;;;;;2.97;1.30;;;;;;;17.10;89.69;100295.16;4984933;28;20304;-62
2022/07/01 07:22:50;;;;;;;6.03;1.30;;;;;;;17.13;87.57;100301.03;4992777;28;20191;-62
2022/07/01 07:25:16;;;;;;;3.73;1.30;;;;;;;17.11;91.00;100303.78;4992938;28;20215;-62
2022/07/01 07:27:42;;;;;;;4.30;1.60;;;;;;;16.79;90.98;100307.09;4985461;28;20207;-62
2022/07/01 07:30:08;;;;;;;1.93;1.37;;;;;;;17.12;91.07;100313.22;4947798;28;20574;-63
2022/07/01 07:32:33;;;;;;;1.93;1.57;;;;;;;17.33;89.97;100317.66;5005179;28;20195;-64
2022/07/01 07:34:59;;;;;;;2.70;1.57;;;;;;;17.22;90.68;100315.94;4978443;28;20643;-62
2022/07/01 07:37:24;;;;;;;2.87;1.53;;;;;;;17.01;94.13;100316.66;4975137;28;20192;-64
2022/07/01 07:39:49;;;;;;;3.83;1.80;;;;;;;17.07;94.48;100317.97;4990199;28;20631;-64
2022/07/01 07:42:14;;;;;;;7.13;1.93;;;;;;;16.99;92.37;100317.72;4993659;28;20215;-63
2022/07/01 07:44:40;;;;;;;2.93;1.83;;;;;;;16.98;94.09;100319.53;4988770;28;20188;-63
2022/07/01 07:47:05;;;;;;;4.20;2.17;;;;;;;16.83;95.54;100321.50;4994194;28;20223;-62
2022/07/01 07:49:30;;;;;;;2.17;1.60;;;;;;;17.07;96.88;100323.16;5006814;28;20195;-65
2022/07/01 07:51:56;;;;;;;2.27;1.53;;;;;;;17.07;92.73;100323.97;4982097;28;20225;-63
2022/07/01 07:54:22;;;;;;;3.03;1.50;;;;;;;17.00;93.21;100324.59;4993811;28;20647;-63
2022/07/01 07:56:47;;;;;;;1.87;1.30;;;;;;;17.04;93.46;100310.41;4990475;28;20640;-63
2022/07/01 07:59:12;;;;;;;2.10;1.57;;;;;;;16.88;94.88;100315.94;4992396;28;20642;-62
2022/07/01 08:01:38;;;;;;;2.80;1.50;;;;;;;16.85;95.49;100314.41;4983400;28;20752;-62
2022/07/01 08:04:03;;;;;;;2.43;1.50;;;;;;;16.91;97.10;100303.56;4984167;28;20200;-63
2022/07/01 08:06:29;;;;;;;2.27;1.57;;;;;;;16.77;99.04;100302.00;4981919;28;20192;-62
2022/07/01 08:08:54;;;;;;;5.83;1.50;;;;;;;16.61;98.51;100304.97;4984226;28;20434;-61
2022/07/01 08:11:20;;;;;;;1.70;1.40;;;;;;;16.68;98.31;100296.69;4977259;28;20245;-61
2022/07/01 08:13:45;;;;;;;1.63;1.37;;;;;;;16.87;99.16;100298.69;4991674;28;20938;-61
2022/07/01 08:16:11;;;;;;;2.50;1.40;;;;;;;17.01;94.88;100300.25;4983530;28;20191;-63
2022/07/01 08:18:36;;;;;;;1.90;1.50;;;;;;;17.04;91.75;100300.00;4990725;28;20292;-64
2022/07/01 08:21:01;;;;;;;2.90;1.40;;;;;;;17.05;92.12;100306.84;4986513;28;20673;-64
2022/07/01 08:23:27;;;;;;;4.33;1.23;;;;;;;17.10;93.14;100315.13;4989947;28;20285;-63
2022/07/01 08:25:52;;;;;;;1.63;1.33;;;;;;;17.39;91.19;100322.38;4979576;28;20247;-63
2022/07/01 08:28:18;;;;;;;2.33;1.33;;;;;;;17.75;88.01;100315.19;4974328;28;20192;-64
2022/07/01 08:30:44;;;;;;;5.43;1.67;;;;;;;17.66;86.30;100302.91;4978537;28;20234;-64
2022/07/01 08:33:10;;;;;;;3.20;1.77;;;;;;;17.33;87.09;100284.69;5003167;28;20183;-62
2022/07/01 08:35:35;;;;;;;1.73;1.30;;;;;;;17.62;90.47;100278.09;4993018;28;20611;-62
2022/07/01 08:38:01;;;;;;;2.67;1.40;;;;;;;17.73;86.75;100265.84;4982985;28;20176;-62
2022/07/01 08:40:29;;;;;;;2.50;1.37;;;;;;;17.90;85.24;100266.25;4966736;28;20239;-61
2022/07/01 08:42:59;;;;;;;2.00;1.20;;;;;;;18.29;81.20;100263.88;4994987;28;20207;-62
2022/07/01 08:45:27;;;;;;;1.57;1.13;;;;;;;18.51;79.05;100267.28;4991319;28;20246;-63
2022/07/01 08:47:57;;;;;;;3.43;1.40;;;;;;;18.59;77.71;100261.41;4975629;28;20239;-62
2022/07/01 08:50:25;;;;;;;2.13;0.97;;;;;;;18.83;73.23;100276.72;4966629;28;20292;-63
2022/07/01 08:52:51;;;;;;;1.47;1.10;;;;;;;18.87;75.25;100312.78;5000820;28;20176;-63
2022/07/01 08:55:16;;;;;;;4.20;1.57;;;;;;;18.87;73.47;100330.22;4982260;28;20639;-63
2022/07/01 08:57:42;;;;;;;4.17;1.07;;;;;;;18.71;71.82;100336.72;4992622;28;20178;-58
2022/07/01 09:00:08;;;;;;;2.73;1.50;;;;;;;18.79;73.18;100348.28;4982971;28;20202;-61
2022/07/01 09:02:55;;;;;;;2.70;1.10;;;;;;;18.82;73.26;100348.03;5006978;28;20195;-62
2022/07/01 09:05:23;;;;;;;1.07;0.97;;;;;;;18.94;71.26;100353.97;4994462;28;20721;-63
2022/07/01 09:07:49;;;;;;;2.30;1.57;;;;;;;19.17;69.45;100357.22;4992519;28;20266;-63
2022/07/01 09:10:18;;;;;;;2.13;1.07;;;;;;;18.77;68.79;100365.84;4979406;28;20230;-63
2022/07/01 09:12:47;;;;;;;2.10;1.00;;;;;;;18.88;70.92;100361.34;4979015;28;20176;-64
2022/07/01 09:15:26;;;;;;;1.27;0.97;;;;;;;18.52;71.02;100360.91;4980320;28;20581;-62
2022/07/01 09:17:52;;;;;;;2.87;1.13;;;;;;;18.61;74.54;100358.50;4989501;28;20246;-62
2022/07/01 09:20:29;;;;;;;3.93;1.13;;;;;;;18.75;70.83;100342.50;4981590;28;20221;-64
2022/07/01 09:23:12;;;;;;;2.70;1.13;;;;;;;18.64;70.74;100338.22;4988565;28;20672;-63
2022/07/01 09:25:43;;;;;;;2.17;1.00;;;;;;;18.61;71.26;100348.88;4990178;28;20730;-63
2022/07/01 09:28:12;;;;;;;1.77;1.10;;;;;;;18.52;72.60;100355.69;4990014;28;20222;-62
2022/07/01 09:30:39;;;;;;;3.47;1.03;;;;;;;18.63;72.10;100354.81;4966977;28;20242;-62
2022/07/01 09:33:13;;;;;;;1.87;0.90;;;;;;;18.88;71.84;100348.31;4990931;28;20594;-62
2022/07/01 09:35:40;;;;;;;4.70;0.97;;;;;;;19.13;69.82;100358.47;4972562;28;20624;-63
2022/07/01 09:38:07;;;;;;;1.80;0.90;;;;;;;19.52;65.25;100351.53;4980228;28;20226;-62
2022/07/01 09:40:45;;;;;;;2.07;1.00;;;;;;;19.90;62.00;100359.53;4975627;28;20717;-63
2022/07/01 09:43:19;;;;;;;1.70;0.80;;;;;;;20.06;59.52;100343.31;4998986;28;20242;-62
2022/07/01 09:45:52;;;;;;;2.10;1.20;;;;;;;20.56;57.48;100350.06;4962148;28;20238;-62
2022/07/01 09:48:18;;;;;;;2.73;0.93;;;;;;;21.15;53.63;100351.59;4972517;28;20307;-62
2022/07/01 09:50:45;;;;;;;5.50;1.07;;;;;;;22.05;52.00;100347.25;4973926;28;20397;-62
2022/07/01 09:53:10;;;;;;;0.87;0.77;;;;;;;22.16;50.53;100350.59;4977162;28;20204;-63
2022/07/01 09:55:36;;;;;;;1.17;1.00;;;;;;;22.42;48.73;100347.19;4988991;28;20439;-63
2022/07/01 09:58:01;;;;;;;1.63;0.97;;;;;;;22.50;48.88;100344.59;4973463;28;20196;-63
2022/07/01 10:00:29;;;;;;;0.87;0.70;;;;;;;22.42;45.32;100340.13;4988192;28;20227;-63
2022/07/01 10:02:56;;;;;;;5.37;1.13;;;;;;;23.11;47.22;100350.59;4985281;28;20207;-64
2022/07/01 10:05:24;;;;;;;1.60;1.00;;;;;;;24.04;45.05;100361.91;4985439;28;20179;-62
2022/07/01 10:08:28;;;;;;;2.57;1.00;;;;;;;24.81;39.22;100347.47;4975431;28;20184;-64
2022/07/01 10:11:29;;;;;;;1.70;0.80;;;;;;;25.71;38.61;100358.44;4978203;28;20234;-64
2022/07/01 10:13:58;;;;;;;1.63;0.70;;;;;;;26.21;36.53;100353.56;4980126;28;20184;-65
2022/07/01 10:16:23;;;;;;;1.80;0.88;;;;;;;26.36;36.91;100364.16;4975469;28;20188;-63
2022/07/01 10:18:49;;;;;;;2.17;1.00;;;;;;;25.81;37.69;100366.13;4971745;28;20278;-64
2022/07/01 10:21:32;;;;;;;1.45;0.80;;;;;;;24.89;39.53;100370.28;4976695;28;20246;-65
2022/07/01 10:24:17;;;;;;;2.15;1.02;;;;;;;24.26;41.94;100380.59;4987572;28;20199;-64
2022/07/01 10:26:43;;;;;;;3.10;1.10;;;;;;;22.99;42.81;100375.47;4981734;28;20677;-65
2022/07/01 10:29:32;;;;;;;2.33;0.80;;;;;;;23.03;43.60;100374.16;4990678;28;20262;-64
2022/07/01 10:32:21;;;;;;;2.45;0.88;;;;;;;23.23;43.43;100376.56;4995890;28;20226;-65
2022/07/01 10:34:48;;;;;;;2.60;0.90;;;;;;;22.46;45.55;100378.16;4990976;28;20282;-63
2022/07/01 10:37:13;;;;;;;1.60;0.83;;;;;;;22.20;46.75;100380.75;4991844;28;20198;-72
2022/07/01 10:39:53;;;;;;;4.07;1.20;;;;;;;21.60;49.59;100383.03;4981445;28;20180;-64
2022/07/01 10:42:19;;;;;;;1.87;1.07;;;;;;;22.31;49.05;100375.25;5000261;28;20633;-65
2022/07/01 10:45:06;;;;;;;2.10;0.90;;;;;;;22.49;47.70;100388.34;4992264;28;20188;-64
2022/07/01 10:47:32;;;;;;;1.60;1.00;;;;;;;24.52;42.81;100388.25;4975712;28;20196;-65
2022/07/01 10:50:03;;;;;;;3.60;1.00;;;;;;;24.79;41.39;100375.72;4986856;28;20183;-65
2022/07/01 10:52:28;;;;;;;2.43;0.90;;;;;;;24.10;43.66;100384.91;4966926;28;20563;-67
2022/07/01 10:54:56;;;;;;;0.90;0.80;;;;;;;23.60;43.24;100370.88;4978062;28;20187;-65
2022/07/01 10:57:22;;;;;;;2.55;0.80;;;;;;;22.98;42.85;100371.19;4980592;28;20195;-65
2022/07/01 11:00:00;;;;;;;2.30;0.90;;;;;;;22.64;44.52;100367.63;4983858;28;20175;-65
2022/07/01 11:02:33;;;;;;;4.23;1.00;;;;;;;22.33;45.33;100364.63;4955005;28;20219;-63
2022/07/01 11:05:01;;;;;;;1.70;1.07;;;;;;;21.85;48.06;100370.16;4988076;28;20640;-66
2022/07/01 11:07:30;;;;;;;2.20;0.80;;;;;;;21.66;51.98;100363.28;4962228;28;20189;-65
2022/07/01 11:09:56;;;;;;;2.87;0.87;;;;;;;21.34;50.17;100361.97;4965660;28;20597;-66
2022/07/01 11:12:25;;;;;;;1.33;0.80;;;;;;;21.26;51.42;100367.94;4981039;28;20234;-66
2022/07/01 11:14:51;;;;;;;2.20;1.20;;;;;;;21.39;52.55;100370.19;4985434;28;20567;-63
2022/07/01 11:17:17;;;;;;;1.43;0.73;;;;;;;22.35;51.18;100367.91;4980982;28;20651;-63
2022/07/01 11:19:57;;;;;;;2.03;0.80;;;;;;;22.28;47.84;100370.31;4990929;28;20219;-63
2022/07/01 11:22:32;;;;;;;0.70;0.60;;;;;;;22.07;47.57;100365.44;4987510;28;20219;-62
2022/07/01 11:25:00;;;;;;;6.23;1.40;;;;;;;21.48;49.46;100355.38;4983657;28;20231;-63
2022/07/01 11:27:26;;;;;;;9.07;0.90;;;;;;;21.87;48.23;100360.38;4991859;28;20225;-66
2022/07/01 11:29:53;;;;;;;1.20;0.70;;;;;;;21.83;46.82;100364.25;4989330;28;20624;-65
2022/07/01 11:32:25;;;;;;;1.27;0.53;;;;;;;22.01;50.06;100364.22;4966886;28;20230;-66
2022/07/01 11:34:51;;;;;;;1.17;0.80;;;;;;;21.70;50.72;100356.78;4975322;28;20196;-64